Time;durP1;ratioP1;P1;durP2;ratioP2;P2;SDS_P1;SDS_P2;PMS_P1;PMS_P2;Temp;Humidity;BMP_temperature;BMP_pressure;BME280_temperature;BME280_humidity;BME280_pressure;Samples;Min_cycle;Max_cycle;Signal;HPM_P1;HPM_P2
2022/12/03 00:04:59;;;;;;;50.00;25.90;;;23.10;50.10;;;;;;215728;1283;24339;-56
2022/12/03 00:10:04;;;;;;;54.80;25.60;;;23.00;50.30;;;;;;215782;1275;23246;-55
2022/12/03 00:15:09;;;;;;;47.40;23.80;;;22.90;50.40;;;;;;215491;1284;22602;-54
2022/12/03 00:20:20;;;;;;;49.90;22.90;;;22.80;50.80;;;;;;215442;1276;26480;-55
2022/12/03 00:25:25;;;;;;;47.00;22.40;;;22.70;50.90;;;;;;215548;1275;25403;-56
2022/12/03 00:30:37;;;;;;;44.10;23.40;;;22.50;51.00;;;;;;215683;1274;25567;-57
2022/12/03 00:35:41;;;;;;;44.50;23.50;;;22.50;51.20;;;;;;215777;1283;22486;-56
2022/12/03 00:40:45;;;;;;;46.20;23.30;;;22.40;51.90;;;;;;215451;1269;25450;-55
2022/12/03 00:45:49;;;;;;;46.60;23.30;;;22.20;51.50;;;;;;215491;1283;24160;-55
2022/12/03 00:50:56;;;;;;;41.60;21.90;;;22.20;51.80;;;;;;215569;1297;22480;-53
2022/12/03 00:56:00;;;;;;;42.10;21.50;;;22.10;51.90;;;;;;215655;1282;22567;-56
2022/12/03 01:01:04;;;;;;;40.80;21.60;;;22.00;52.10;;;;;;215767;1292;22810;-55
2022/12/03 01:06:08;;;;;;;40.90;21.40;;;21.90;52.30;;;;;;215506;1282;22709;-54
2022/12/03 01:16:36;;;;;;;37.60;20.40;;;21.80;52.60;;;;;;215381;1288;25540;-55
2022/12/03 01:21:45;;;;;;;33.80;19.80;;;21.70;52.60;;;;;;215605;1283;22596;-55
2022/12/03 01:26:49;;;;;;;38.70;21.00;;;21.60;52.60;;;;;;215637;1275;22799;-55
2022/12/03 01:37:17;;;;;;;33.00;18.20;;;21.60;52.90;;;;;;215446;1292;22582;-53
2022/12/03 01:42:24;;;;;;;33.20;17.70;;;21.50;53.00;;;;;;218684;1297;24275;-55
2022/12/03 01:47:34;;;;;;;34.20;18.60;;;21.50;53.10;;;;;;218024;1279;22713;-54
2022/12/03 01:52:39;;;;;;;30.30;17.50;;;21.40;53.20;;;;;;215719;1291;24179;-56
2022/12/03 01:57:53;;;;;;;32.20;17.60;;;21.40;53.20;;;;;;215547;1279;22463;-53
2022/12/03 02:03:02;;;;;;;33.00;18.40;;;21.30;53.20;;;;;;215575;1283;25674;-54
2022/12/03 02:08:25;;;;;;;32.60;17.80;;;21.30;53.40;;;;;;215600;1284;24272;-54
2022/12/03 02:13:30;;;;;;;31.70;17.00;;;21.40;53.40;;;;;;215440;1275;22509;-55
2022/12/03 02:18:44;;;;;;;30.90;15.80;;;21.70;52.70;;;;;;215716;1292;24079;-55
2022/12/03 02:24:01;;;;;;;25.70;14.90;;;22.00;52.10;;;;;;215420;1282;22759;-57
2022/12/03 02:29:06;;;;;;;25.00;15.60;;;22.20;52.00;;;;;;215320;1269;22477;-55
2022/12/03 02:34:10;;;;;;;29.80;16.30;;;22.30;51.60;;;;;;215658;1279;25502;-55
2022/12/03 02:39:14;;;;;;;27.30;15.10;;;22.40;51.00;;;;;;215700;1279;22492;-54
2022/12/03 02:44:18;;;;;;;25.20;14.70;;;22.50;51.30;;;;;;215503;1269;24002;-55
2022/12/03 02:49:22;;;;;;;24.00;13.30;;;22.60;50.70;;;;;;215795;1276;22462;-54
2022/12/03 02:54:25;;;;;;;24.80;13.90;;;22.60;50.60;;;;;;215609;1275;25378;-56
2022/12/03 02:59:29;;;;;;;23.10;14.40;;;22.60;50.40;;;;;;215506;1283;22485;-54
2022/12/03 03:04:33;;;;;;;23.80;14.90;;;22.70;50.40;;;;;;215680;1283;23831;-54
2022/12/03 03:09:37;;;;;;;24.10;14.20;;;22.70;50.10;;;;;;215566;1283;22522;-55
2022/12/03 03:14:41;;;;;;;25.50;14.90;;;22.80;50.50;;;;;;215664;1282;25204;-55
2022/12/03 03:19:45;;;;;;;21.60;12.90;;;22.80;50.20;;;;;;215266;1276;25363;-54
2022/12/03 03:24:49;;;;;;;23.90;13.00;;;22.90;49.90;;;;;;215520;1283;24153;-55
2022/12/03 03:29:56;;;;;;;22.30;13.20;;;22.90;49.80;;;;;;215515;1295;22509;-54
2022/12/03 03:35:00;;;;;;;21.90;12.40;;;22.90;49.90;;;;;;215398;1288;24257;-54
2022/12/03 03:40:04;;;;;;;20.90;12.40;;;22.90;49.70;;;;;;215639;1297;23881;-55
2022/12/03 03:45:09;;;;;;;21.30;13.60;;;23.00;49.80;;;;;;215612;1276;26873;-54
2022/12/03 03:50:13;;;;;;;21.10;12.00;;;23.00;49.80;;;;;;215471;1277;23920;-53
2022/12/03 03:55:19;;;;;;;19.10;12.30;;;23.00;49.60;;;;;;215590;1285;23316;-55
2022/12/03 04:00:23;;;;;;;21.00;12.10;;;23.10;49.50;;;;;;215393;1282;24260;-54
2022/12/03 04:05:27;;;;;;;18.60;12.40;;;23.10;49.40;;;;;;215396;1284;22466;-55
2022/12/03 04:15:53;;;;;;;19.40;11.80;;;23.20;49.50;;;;;;215595;1275;26074;-55
2022/12/03 04:22:38;;;;;;;17.40;11.60;;;23.10;49.50;;;;;;215565;1297;26794;-54
2022/12/03 04:37:07;;;;;;;18.20;11.40;;;22.80;50.40;;;;;;215570;1283;22620;-56
2022/12/03 04:42:11;;;;;;;21.80;12.10;;;22.70;50.60;;;;;;215661;1288;22450;-55
2022/12/03 04:47:20;;;;;;;17.10;11.70;;;22.60;51.30;;;;;;215562;1283;23915;-56
2022/12/03 04:52:24;;;;;;;18.60;12.20;;;22.50;51.00;;;;;;215598;1275;22599;-55
2022/12/03 04:57:28;;;;;;;18.70;11.70;;;22.40;51.20;;;;;;215468;1278;22521;-55
2022/12/03 05:02:32;;;;;;;19.10;12.50;;;22.20;51.50;;;;;;215671;1283;24301;-54
2022/12/03 05:07:36;;;;;;;16.20;10.90;;;22.20;51.90;;;;;;215579;1283;23557;-54
2022/12/03 05:12:40;;;;;;;16.50;10.90;;;22.10;52.00;;;;;;215577;1297;23051;-55
2022/12/03 05:17:44;;;;;;;15.90;11.10;;;21.90;52.10;;;;;;215607;1283;24051;-54
2022/12/03 05:22:47;;;;;;;16.60;11.40;;;21.90;52.30;;;;;;215555;1297;23987;-55
2022/12/03 05:27:51;;;;;;;16.60;11.40;;;21.80;52.30;;;;;;215282;1282;22482;-55
2022/12/03 05:32:55;;;;;;;18.50;11.00;;;21.80;52.40;;;;;;217956;1279;24253;-55
2022/12/03 05:37:59;;;;;;;15.60;10.70;;;21.70;52.40;;;;;;215906;1274;26689;-54
2022/12/03 05:43:03;;;;;;;15.20;10.80;;;21.70;52.40;;;;;;215485;1293;23840;-54
2022/12/03 05:48:10;;;;;;;16.50;10.50;;;21.70;52.50;;;;;;215454;1280;22479;-55
2022/12/03 05:53:15;;;;;;;15.10;10.20;;;21.60;52.90;;;;;;215615;1277;24405;-56
2022/12/03 05:58:18;;;;;;;17.40;11.50;;;21.50;52.70;;;;;;215506;1282;22448;-54
2022/12/03 06:03:22;;;;;;;17.00;11.20;;;21.50;52.70;;;;;;215712;1293;23944;-54
2022/12/03 06:08:26;;;;;;;15.20;10.50;;;21.40;52.80;;;;;;215505;1297;22696;-54
2022/12/03 06:13:31;;;;;;;13.40;9.50;;;21.40;52.90;;;;;;215174;1280;22463;-54
2022/12/03 06:18:37;;;;;;;14.60;9.50;;;21.30;52.90;;;;;;215359;1300;22483;-53
2022/12/03 06:23:43;;;;;;;15.70;9.90;;;21.40;52.90;;;;;;215397;1276;23998;-55
2022/12/03 06:28:48;;;;;;;17.30;9.50;;;21.70;52.60;;;;;;215003;1284;22868;-54
2022/12/03 06:33:52;;;;;;;15.50;10.00;;;22.00;52.40;;;;;;215383;1274;25545;-55
2022/12/03 06:38:57;;;;;;;15.80;9.00;;;22.20;51.30;;;;;;215301;1300;23888;-54
2022/12/03 06:44:00;;;;;;;13.40;9.10;;;22.30;51.00;;;;;;215219;1292;23900;-55
2022/12/03 06:49:05;;;;;;;13.80;9.40;;;22.40;50.80;;;;;;215094;1288;24250;-54
2022/12/03 06:54:09;;;;;;;14.80;9.20;;;22.40;50.60;;;;;;215398;1282;25537;-54
2022/12/03 06:59:13;;;;;;;14.20;9.90;;;22.50;50.40;;;;;;215450;1275;25219;-54
2022/12/03 07:04:17;;;;;;;13.60;9.50;;;22.60;50.30;;;;;;215289;1275;25947;-54
2022/12/03 07:09:21;;;;;;;13.90;8.80;;;22.70;50.10;;;;;;215636;1276;22584;-56
2022/12/03 07:14:25;;;;;;;14.50;8.90;;;22.70;49.90;;;;;;215663;1295;22519;-56
2022/12/03 07:19:29;;;;;;;13.50;9.10;;;22.80;49.80;;;;;;215647;1293;22520;-56
2022/12/03 07:24:36;;;;;;;13.50;8.60;;;22.80;49.80;;;;;;215650;1282;24252;-55
2022/12/03 07:29:41;;;;;;;16.00;8.90;;;22.80;49.70;;;;;;215517;1283;24326;-55
2022/12/03 07:34:46;;;;;;;13.70;9.30;;;22.80;49.60;;;;;;215572;1292;22470;-57
2022/12/03 07:39:51;;;;;;;13.90;8.50;;;22.90;49.60;;;;;;215494;1270;24347;-54
2022/12/03 07:44:55;;;;;;;14.30;9.20;;;22.90;49.80;;;;;;217467;1283;24008;-56
2022/12/03 07:49:59;;;;;;;14.10;8.80;;;22.90;49.60;;;;;;215647;1292;23870;-55
2022/12/03 07:55:14;;;;;;;13.10;8.90;;;22.90;49.70;;;;;;215515;1289;22620;-56
2022/12/03 08:00:24;;;;;;;13.80;8.30;;;23.00;49.60;;;;;;215611;1285;22457;-54
2022/12/03 08:05:29;;;;;;;13.70;8.80;;;23.00;49.60;;;;;;215451;1279;24214;-55
2022/12/03 08:10:46;;;;;;;12.60;8.40;;;23.00;49.50;;;;;;215526;1279;23267;-56
2022/12/03 08:15:54;;;;;;;13.00;8.40;;;23.00;49.60;;;;;;215573;1277;25561;-56
2022/12/03 08:21:10;;;;;;;11.40;8.00;;;23.00;49.50;;;;;;215689;1285;22583;-56
2022/12/03 08:26:23;;;;;;;14.60;9.10;;;23.10;50.10;;;;;;215560;1276;22548;-54
2022/12/03 08:31:56;;;;;;;14.20;7.70;;;23.10;49.50;;;;;;215352;1275;22549;-56
2022/12/03 08:37:17;;;;;;;12.30;7.90;;;23.10;50.40;;;;;;215312;1277;22538;-55
2022/12/03 08:42:44;;;;;;;12.70;7.70;;;23.00;50.60;;;;;;215366;1280;22459;-57
2022/12/03 08:48:15;;;;;;;12.50;7.90;;;22.90;51.30;;;;;;214363;1288;22834;-56
2022/12/03 08:53:40;;;;;;;13.90;8.20;;;22.80;50.90;;;;;;214596;1279;25568;-52
2022/12/03 08:58:59;;;;;;;15.70;8.40;;;22.70;51.30;;;;;;214626;1282;22479;-57
2022/12/03 09:04:19;;;;;;;13.60;8.30;;;22.60;51.40;;;;;;214610;1284;23396;-53
2022/12/03 09:09:30;;;;;;;16.60;8.80;;;22.50;51.80;;;;;;214586;1280;22833;-58
2022/12/03 09:14:35;;;;;;;12.70;8.30;;;22.40;52.30;;;;;;214653;1284;22671;-54
2022/12/03 09:19:43;;;;;;;14.00;8.10;;;22.20;52.60;;;;;;215433;1277;24273;-55
2022/12/03 09:24:51;;;;;;;11.30;7.60;;;22.10;53.00;;;;;;215635;1297;25339;-51
2022/12/03 09:30:02;;;;;;;9.70;7.60;;;22.00;53.10;;;;;;215610;1283;23846;-48
2022/12/03 09:35:07;;;;;;;14.70;8.70;;;21.90;53.30;;;;;;215584;1283;22689;-55
2022/12/03 09:40:14;;;;;;;13.20;8.70;;;21.90;53.40;;;;;;215593;1285;22483;-53
2022/12/03 09:45:21;;;;;;;13.80;8.40;;;21.90;53.90;;;;;;215511;1283;24257;-52
2022/12/03 09:50:40;;;;;;;13.30;8.20;;;21.80;53.50;;;;;;215466;1283;22515;-52
2022/12/03 09:55:50;;;;;;;12.70;8.50;;;21.80;53.60;;;;;;215532;1297;22463;-52
2022/12/03 10:00:58;;;;;;;14.20;7.80;;;21.70;53.80;;;;;;215660;1286;24288;-50
2022/12/03 10:06:21;;;;;;;11.20;7.20;;;21.70;53.60;;;;;;215451;1290;23873;-47
2022/12/03 10:11:51;;;;;;;13.40;7.30;;;21.70;53.40;;;;;;215207;1283;24247;-51
2022/12/03 10:16:55;;;;;;;15.20;8.50;;;21.60;53.30;;;;;;215121;1286;25288;-56
2022/12/03 10:22:03;;;;;;;16.20;8.50;;;21.60;53.80;;;;;;215140;1276;22623;-57
2022/12/03 10:27:32;;;;;;;14.60;7.70;;;21.60;53.80;;;;;;215189;1283;160943;-55
2022/12/03 10:32:40;;;;;;;12.80;7.50;;;21.50;54.60;;;;;;215278;1283;22547;-57
2022/12/03 10:37:58;;;;;;;16.50;8.50;;;21.40;54.60;;;;;;215223;1276;24250;-57
2022/12/03 10:43:18;;;;;;;11.40;7.60;;;21.40;54.30;;;;;;215238;1278;24297;-56
2022/12/03 10:48:26;;;;;;;16.50;8.30;;;21.30;54.70;;;;;;215254;1272;25765;-57
2022/12/03 10:53:33;;;;;;;12.90;8.00;;;21.30;54.50;;;;;;215287;1269;22503;-58
2022/12/03 10:58:40;;;;;;;14.10;7.80;;;21.50;55.20;;;;;;215043;1284;25549;-58
2022/12/03 11:03:59;;;;;;;94.30;30.90;;;21.80;53.80;;;;;;215277;1280;22556;-56
2022/12/03 11:09:24;;;;;;;187.40;55.60;;;22.20;53.20;;;;;;215187;1276;24260;-56
2022/12/03 11:15:03;;;;;;;271.40;88.80;;;22.40;52.60;;;;;;215435;1292;24345;-57
2022/12/03 11:20:23;;;;;;;259.10;78.40;;;22.60;52.30;;;;;;215459;1281;22455;-57
2022/12/03 11:25:28;;;;;;;219.60;70.80;;;22.60;52.40;;;;;;215581;1284;25254;-55
2022/12/03 11:30:47;;;;;;;203.30;68.00;;;22.70;51.70;;;;;;215260;1276;25739;-55
2022/12/03 11:36:03;;;;;;;205.60;70.40;;;22.60;51.70;;;;;;215437;1285;25542;-53
2022/12/03 11:41:27;;;;;;;192.30;65.30;;;22.60;52.00;;;;;;215375;1272;22823;-55
2022/12/03 11:46:58;;;;;;;173.10;60.30;;;22.60;52.50;;;;;;215510;1277;25465;-53
2022/12/03 11:52:18;;;;;;;164.50;60.40;;;22.60;52.10;;;;;;215301;1282;24247;-55
2022/12/03 11:57:33;;;;;;;161.80;56.20;;;22.70;52.10;;;;;;215514;1276;23501;-55
2022/12/03 12:03:03;;;;;;;159.60;54.50;;;22.80;51.70;;;;;;215381;1283;25490;-58
2022/12/03 12:08:20;;;;;;;153.10;54.70;;;22.90;51.40;;;;;;215166;1284;24233;-55
2022/12/03 12:13:33;;;;;;;137.80;50.20;;;23.00;51.20;;;;;;215349;1288;23349;-55
2022/12/03 12:18:53;;;;;;;146.30;52.90;;;23.10;51.00;;;;;;215417;1280;22746;-55
2022/12/03 12:24:39;;;;;;;125.70;49.60;;;23.10;51.50;;;;;;215513;1282;25500;-55
2022/12/03 12:30:08;;;;;;;127.60;49.30;;;23.10;50.90;;;;;;215579;1276;22464;-55
2022/12/03 12:35:26;;;;;;;124.50;45.40;;;23.20;50.90;;;;;;215642;1288;24260;-56
2022/12/03 12:40:48;;;;;;;119.80;44.10;;;23.20;51.00;;;;;;215740;1280;25347;-55
2022/12/03 12:46:17;;;;;;;104.60;40.40;;;23.30;50.90;;;;;;215545;1289;24142;-54
2022/12/03 12:51:46;;;;;;;96.50;39.20;;;23.50;49.70;;;;;;215510;1275;22531;-54
2022/12/03 12:56:53;;;;;;;101.90;40.00;;;23.20;50.90;;;;;;215583;1277;24238;-53
2022/12/03 13:02:01;;;;;;;91.70;37.00;;;23.10;51.30;;;;;;215595;1282;23067;-54
2022/12/03 13:07:13;;;;;;;94.80;37.50;;;22.90;51.60;;;;;;215601;1294;22527;-54
2022/12/03 13:12:26;;;;;;;99.60;38.50;;;22.80;52.50;;;;;;215512;1283;22486;-53
2022/12/03 13:17:30;;;;;;;96.60;36.90;;;22.70;52.60;;;;;;215784;1285;26484;-55
2022/12/03 13:22:34;;;;;;;85.30;34.30;;;22.60;53.10;;;;;;215454;1287;22469;-55
2022/12/03 13:27:38;;;;;;;79.20;32.60;;;22.50;53.30;;;;;;215660;1296;23880;-52
2022/12/03 13:32:48;;;;;;;79.70;33.90;;;22.40;53.60;;;;;;215644;1278;23733;-53
2022/12/03 13:37:56;;;;;;;82.40;33.60;;;22.30;54.00;;;;;;215613;1273;22836;-53
2022/12/03 13:43:08;;;;;;;84.50;32.90;;;22.30;53.90;;;;;;215338;1276;25511;-53
2022/12/03 13:48:23;;;;;;;81.20;32.00;;;22.20;54.20;;;;;;215321;1281;22715;-54
2022/12/03 13:53:33;;;;;;;81.00;31.90;;;22.20;54.40;;;;;;215547;1280;23051;-55
2022/12/03 13:58:36;;;;;;;73.20;30.90;;;22.10;55.30;;;;;;215335;1272;24424;-52
2022/12/03 14:03:41;;;;;;;61.80;28.30;;;22.00;54.20;;;;;;215483;1286;24375;-54
2022/12/03 14:08:46;;;;;;;67.50;30.20;;;22.00;54.20;;;;;;215514;1285;22477;-53
2022/12/03 14:13:50;;;;;;;62.00;28.50;;;21.90;54.80;;;;;;215612;1276;22623;-53
2022/12/03 14:18:54;;;;;;;58.50;28.40;;;21.90;54.20;;;;;;215629;1280;22853;-54
2022/12/03 14:24:21;;;;;;;61.30;27.00;;;21.80;54.20;;;;;;215400;1277;22559;-53
2022/12/03 14:29:26;;;;;;;57.20;26.20;;;21.80;54.00;;;;;;214479;1278;24559;-51
2022/12/03 14:34:30;;;;;;;59.70;25.60;;;21.70;53.60;;;;;;214628;1281;24231;-50
2022/12/03 14:39:34;;;;;;;52.40;24.60;;;21.70;53.60;;;;;;214638;1294;24481;-53
2022/12/03 14:44:46;;;;;;;51.80;23.90;;;21.60;53.90;;;;;;214717;1288;24230;-50
2022/12/03 14:49:57;;;;;;;60.70;25.50;;;21.60;54.30;;;;;;214551;1279;22556;-54
2022/12/03 14:55:00;;;;;;;;;;;21.50;52.90;;;;;;214521;1281;24256;-55
2022/12/03 15:00:07;;;;;;;58.90;25.20;;;21.50;53.30;;;;;;214505;1289;22549;-55
2022/12/03 15:05:16;;;;;;;47.50;23.30;;;21.40;53.10;;;;;;214604;1279;22442;-57
2022/12/03 15:10:31;;;;;;;53.10;23.70;;;21.40;54.00;;;;;;214579;1278;22467;-57
2022/12/03 15:15:35;;;;;;;48.00;24.00;;;21.40;54.00;;;;;;214531;1280;25514;-55
2022/12/03 15:20:40;;;;;;;48.00;23.00;;;21.40;54.10;;;;;;214492;1278;22841;-54
2022/12/03 15:25:44;;;;;;;52.10;23.20;;;21.40;54.30;;;;;;214852;1279;25578;-57
2022/12/03 15:30:49;;;;;;;44.90;22.20;;;21.30;54.20;;;;;;215287;1277;26558;-54
2022/12/03 15:35:53;;;;;;;42.00;22.80;;;21.30;54.20;;;;;;215460;1298;24253;-54
2022/12/03 15:40:57;;;;;;;45.70;23.90;;;21.20;54.10;;;;;;215361;1278;25550;-56
2022/12/03 15:46:06;;;;;;;48.80;22.20;;;21.40;53.60;;;;;;215383;1277;22491;-54
2022/12/03 15:51:14;;;;;;;43.60;21.10;;;21.70;53.40;;;;;;215322;1285;23734;-56
2022/12/03 15:56:36;;;;;;;39.80;20.40;;;22.20;52.50;;;;;;215270;1276;24250;-55
2022/12/03 16:01:56;;;;;;;37.80;21.00;;;22.40;51.80;;;;;;215600;1274;22501;-55
2022/12/03 16:07:15;;;;;;;39.80;21.20;;;22.60;51.80;;;;;;215529;1282;24252;-55
2022/12/03 16:12:57;;;;;;;37.50;20.80;;;22.70;51.00;;;;;;215320;1288;23867;-56
2022/12/03 16:18:08;;;;;;;39.70;21.70;;;22.80;50.80;;;;;;215525;1284;22463;-62
2022/12/03 16:23:18;;;;;;;;;;;23.00;51.50;;;;;;215522;1285;22639;-55
2022/12/03 16:28:30;;;;;;;40.20;22.20;;;23.00;51.50;;;;;;215507;1278;22593;-55
2022/12/03 16:33:45;;;;;;;37.20;20.60;;;22.90;51.80;;;;;;215368;1276;22706;-56
2022/12/03 16:38:53;;;;;;;40.70;23.90;;;22.90;52.10;;;;;;215226;1276;25447;-57
2022/12/03 16:44:19;;;;;;;41.20;23.90;;;22.90;53.10;;;;;;215259;1276;25985;-55
2022/12/03 16:49:37;;;;;;;36.50;21.60;;;23.10;54.00;;;;;;215462;1287;22491;-56
2022/12/03 16:54:48;;;;;;;43.70;23.40;;;23.00;54.60;;;;;;215503;1276;22457;-54
2022/12/03 16:59:57;;;;;;;33.80;21.90;;;22.90;54.10;;;;;;215490;1276;22534;-55
2022/12/03 17:05:02;;;;;;;37.60;19.80;;;22.80;53.90;;;;;;215402;1272;22537;-55
2022/12/03 17:10:08;;;;;;;33.60;20.10;;;22.70;54.00;;;;;;215452;1275;23679;-51
2022/12/03 17:15:16;;;;;;;41.30;20.00;;;22.70;54.60;;;;;;215245;1276;25457;-51
2022/12/03 17:20:21;;;;;;;37.90;20.40;;;22.70;54.70;;;;;;215273;1275;25288;-52
2022/12/03 17:25:27;;;;;;;34.50;19.90;;;22.60;55.70;;;;;;215440;1276;22547;-52
2022/12/03 17:30:31;;;;;;;86.20;36.80;;;22.60;56.20;;;;;;215295;1283;23872;-51
2022/12/03 17:35:41;;;;;;;185.40;62.70;;;22.50;56.10;;;;;;215398;1283;24291;-52
2022/12/03 17:40:46;;;;;;;276.20;96.50;;;22.30;56.00;;;;;;215450;1283;25209;-52
2022/12/03 17:45:56;;;;;;;339.30;115.10;;;22.20;56.20;;;;;;215340;1283;25313;-52
2022/12/03 17:51:04;;;;;;;237.80;86.10;;;22.20;56.20;;;;;;215445;1283;25260;-51
2022/12/03 17:56:12;;;;;;;254.40;87.20;;;22.10;56.10;;;;;;215160;1277;22713;-53
2022/12/03 18:01:20;;;;;;;227.10;83.20;;;22.00;56.00;;;;;;215328;1277;24016;-52
2022/12/03 18:06:41;;;;;;;204.40;74.10;;;21.90;55.70;;;;;;215032;1276;25454;-52
2022/12/03 18:11:47;;;;;;;202.60;77.00;;;21.90;55.80;;;;;;215591;1275;22457;-52
2022/12/03 18:16:51;;;;;;;195.80;74.30;;;21.80;56.10;;;;;;215669;1269;24294;-51
2022/12/03 18:21:57;;;;;;;181.20;70.80;;;21.70;56.00;;;;;;215359;1275;24372;-51
2022/12/03 18:27:05;;;;;;;182.90;70.30;;;21.80;57.50;;;;;;215469;1274;23703;-51
2022/12/03 18:32:09;;;;;;;175.10;67.10;;;21.80;56.90;;;;;;215453;1269;25818;-52
2022/12/03 18:37:33;;;;;;;150.10;60.60;;;21.80;56.60;;;;;;215593;1274;24480;-51
2022/12/03 18:42:37;;;;;;;148.30;56.90;;;21.70;56.60;;;;;;215629;1279;22480;-53
2022/12/03 18:47:43;;;;;;;151.70;57.90;;;21.70;57.50;;;;;;215559;1273;22480;-52
2022/12/03 18:52:49;;;;;;;150.80;57.20;;;21.50;58.10;;;;;;215495;1274;24383;-54
2022/12/03 18:58:02;;;;;;;146.20;56.00;;;21.50;58.10;;;;;;215323;1285;22593;-56
2022/12/03 19:03:22;;;;;;;139.60;55.20;;;21.40;59.20;;;;;;214956;1274;22650;-52
2022/12/03 19:08:44;;;;;;;130.00;54.10;;;21.50;58.90;;;;;;215385;1273;22572;-51
2022/12/03 19:13:56;;;;;;;139.80;54.60;;;21.40;58.90;;;;;;215565;1283;22690;-52
2022/12/03 19:19:03;;;;;;;131.50;53.00;;;21.40;59.40;;;;;;215348;1274;25296;-53
2022/12/03 19:24:14;;;;;;;116.00;48.20;;;21.40;60.00;;;;;;215470;1274;22494;-54
2022/12/03 19:29:27;;;;;;;128.80;57.80;;;21.30;59.70;;;;;;215445;1274;26875;-55
2022/12/03 19:34:32;;;;;;;126.40;52.30;;;21.30;59.70;;;;;;215430;1274;25400;-54
2022/12/03 19:39:51;;;;;;;102.60;48.30;;;21.20;59.30;;;;;;215326;1274;22476;-54
2022/12/03 19:44:56;;;;;;;109.00;48.10;;;21.20;59.20;;;;;;215320;1286;22457;-54
2022/12/03 19:50:02;;;;;;;93.20;43.90;;;21.10;59.40;;;;;;215547;1274;22462;-54
2022/12/03 19:55:09;;;;;;;100.80;44.90;;;21.10;59.60;;;;;;215552;1266;23885;-54
2022/12/03 20:00:13;;;;;;;82.50;42.40;;;21.20;59.90;;;;;;215384;1274;25306;-53
2022/12/03 20:05:18;;;;;;;84.40;40.50;;;21.10;60.00;;;;;;215563;1282;25255;-55
2022/12/03 20:10:39;;;;;;;;;;;21.10;60.30;;;;;;215346;1279;24235;-54
2022/12/03 20:15:44;;;;;;;96.20;41.90;;;21.10;59.80;;;;;;215715;1274;24263;-55
2022/12/03 20:20:49;;;;;;;83.50;39.30;;;21.00;59.50;;;;;;215598;1274;22686;-55
2022/12/03 20:25:54;;;;;;;73.00;37.80;;;21.00;59.20;;;;;;215482;1288;22700;-57
2022/12/03 20:31:12;;;;;;;76.90;37.70;;;20.90;59.10;;;;;;215536;1282;27627;-54
2022/12/03 20:36:36;;;;;;;71.70;35.50;;;20.90;58.80;;;;;;214855;1278;22475;-56
2022/12/03 20:41:44;;;;;;;69.80;37.70;;;20.90;58.80;;;;;;215004;1279;23879;-56
2022/12/03 20:46:51;;;;;;;68.30;36.40;;;21.20;57.70;;;;;;214665;1278;23064;-56
2022/12/03 20:51:55;;;;;;;65.50;35.60;;;21.70;56.10;;;;;;214764;1285;25270;-55
2022/12/03 20:57:05;;;;;;;67.20;35.40;;;22.00;55.00;;;;;;214780;1280;24102;-59
2022/12/03 21:02:21;;;;;;;63.10;34.70;;;22.20;54.50;;;;;;214631;1277;22864;-56
2022/12/03 21:07:28;;;;;;;59.00;34.60;;;22.30;54.10;;;;;;215350;1274;22531;-55
2022/12/03 21:12:33;;;;;;;57.40;32.40;;;22.40;54.10;;;;;;215565;1275;22476;-58
2022/12/03 21:17:40;;;;;;;52.80;31.10;;;22.40;54.20;;;;;;215696;1282;25257;-58
2022/12/03 21:22:49;;;;;;;61.00;31.90;;;22.40;55.30;;;;;;215786;1276;22474;-59
2022/12/03 21:27:55;;;;;;;49.10;29.20;;;22.60;54.70;;;;;;215698;1283;22599;-58
2022/12/03 21:33:10;;;;;;;52.00;30.50;;;22.50;54.40;;;;;;215640;1273;22586;-57
2022/12/03 21:38:15;;;;;;;54.90;31.30;;;22.50;54.80;;;;;;215589;1266;23140;-58
2022/12/03 21:43:20;;;;;;;57.60;31.60;;;22.50;54.30;;;;;;215524;1283;22507;-58
2022/12/03 21:48:29;;;;;;;52.00;31.60;;;22.40;54.50;;;;;;215602;1283;22473;-60
2022/12/03 21:53:36;;;;;;;49.10;30.20;;;22.40;54.80;;;;;;215615;1282;25383;-59
2022/12/03 21:58:46;;;;;;;50.60;29.10;;;22.40;54.40;;;;;;215548;1283;24031;-59
2022/12/03 22:04:03;;;;;;;47.70;27.60;;;22.50;54.80;;;;;;215496;1273;22497;-58
2022/12/03 22:09:11;;;;;;;47.90;28.70;;;22.60;55.80;;;;;;215471;1274;24041;-58
2022/12/03 22:14:20;;;;;;;47.20;27.40;;;22.70;55.90;;;;;;215586;1283;21852;-57
2022/12/03 22:19:39;;;;;;;48.90;29.50;;;22.80;56.10;;;;;;215393;1274;25256;-57
2022/12/03 22:24:47;;;;;;;52.10;28.40;;;22.80;55.70;;;;;;215364;1274;239820;-58
2022/12/03 22:29:50;;;;;;;46.00;28.40;;;22.90;55.40;;;;;;215419;1281;26626;-59
2022/12/03 22:35:16;;;;;;;44.30;28.00;;;22.90;54.50;;;;;;215319;1276;22547;-60
2022/12/03 22:40:30;;;;;;;44.00;27.70;;;22.90;54.70;;;;;;215127;1269;22947;-58
2022/12/03 22:45:41;;;;;;;45.50;26.20;;;22.90;55.30;;;;;;215773;1282;22463;-58
2022/12/03 22:50:46;;;;;;;44.20;25.30;;;23.00;55.80;;;;;;215608;1292;22745;-58
2022/12/03 22:55:58;;;;;;;43.50;26.70;;;23.00;55.10;;;;;;216660;1281;23843;-59
2022/12/03 23:01:04;;;;;;;43.90;26.80;;;23.00;55.00;;;;;;215651;1283;25318;-59
2022/12/03 23:06:17;;;;;;;40.60;26.70;;;22.90;55.20;;;;;;215508;1297;25367;-58
2022/12/03 23:11:26;;;;;;;40.50;25.80;;;22.80;55.40;;;;;;215364;1297;25419;-59
2022/12/03 23:16:31;;;;;;;40.50;27.00;;;22.70;55.50;;;;;;215615;1279;22629;-58
2022/12/03 23:21:36;;;;;;;36.30;23.90;;;22.70;56.20;;;;;;215484;1275;22876;-57
2022/12/03 23:26:41;;;;;;;37.60;24.40;;;22.60;56.00;;;;;;215623;1282;22475;-58
2022/12/03 23:31:46;;;;;;;39.20;23.50;;;22.50;56.10;;;;;;215560;1297;22464;-57
2022/12/03 23:37:17;;;;;;;34.20;22.40;;;22.50;56.60;;;;;;215625;1283;23869;-60
2022/12/03 23:42:22;;;;;;;35.60;22.60;;;22.40;56.40;;;;;;215537;1283;22839;-58
2022/12/03 23:47:29;;;;;;;35.00;22.00;;;22.30;56.50;;;;;;215477;1276;22468;-58
2022/12/03 23:52:35;;;;;;;33.70;21.00;;;22.20;56.80;;;;;;215641;1279;22509;-57
2022/12/03 23:57:40;;;;;;;36.60;22.60;;;22.20;57.70;;;;;;215462;1275;22474;-56
